Alida, Minnesota
Current Conditions -  °F | °C
As of 6:13 AM on Sunday 25 Jan 2015 (Local Time) from KBJI Reporting Station
Overcast Overcast  
Wind Chill:   Ceiling: 1300
Heat Index: 15°   Visibility: 10mi
Dew Point: 10°   Wind: 5mph
Humidity: 79%   Direction: 40°NE
Pressure: 29.93"   Gusts: NA
Location:  47.4609°N, 95.2384°W
Report Text: KBJI 251213Z AUTO 04004KT 10SM BKN013 OVC017 M09/M12 A2993 RMK AO2 T10951125
Loading
Personal Weather Stations






























Interactive Weather Map New forecast layout! Learn more

10-Day Weather Forecast

Advertisements
Track Severe Weather on mobile